createdAt,value
2023-02-06T00:00:01.766Z,101669.70
2023-02-06T00:02:36.334Z,101674.63
2023-02-06T00:05:09.206Z,101672.85
2023-02-06T00:07:42.592Z,101665.67
2023-02-06T00:10:15.323Z,101662.62
2023-02-06T00:12:48.042Z,101677.77
2023-02-06T00:15:20.676Z,101673.84
2023-02-06T00:17:53.287Z,101670.38
2023-02-06T00:20:25.660Z,101673.43
2023-02-06T00:22:58.380Z,101675.65
2023-02-06T00:25:30.755Z,101678.77
2023-02-06T00:28:03.385Z,101673.43
2023-02-06T00:30:36.638Z,101682.26
2023-02-06T00:33:09.848Z,101672.00
2023-02-06T00:35:43.383Z,101674.63
2023-02-06T00:38:26.510Z,101671.00
2023-02-06T00:40:58.986Z,101667.04
2023-02-06T00:43:31.667Z,101661.29
2023-02-06T00:46:04.350Z,101661.29
2023-02-06T00:48:37.046Z,101669.77
2023-02-06T00:51:09.724Z,101663.27
2023-02-06T00:53:42.226Z,101671.34
2023-02-06T00:56:15.487Z,101670.48
2023-02-06T00:58:48.916Z,101669.55
2023-02-06T01:01:22.238Z,101664.67
2023-02-06T01:03:55.371Z,101672.61
2023-02-06T01:06:28.115Z,101673.05
2023-02-06T01:09:01.442Z,101674.83
2023-02-06T01:11:34.090Z,101671.75
2023-02-06T01:14:07.052Z,101676.58
2023-02-06T01:16:40.672Z,101673.02
2023-02-06T01:19:13.650Z,101674.35
2023-02-06T01:21:46.234Z,101670.31
2023-02-06T01:24:19.700Z,101664.09
2023-02-06T01:26:52.466Z,101668.16
2023-02-06T01:29:24.786Z,101669.55
2023-02-06T01:31:59.726Z,101664.67
2023-02-06T01:34:33.111Z,101671.81
2023-02-06T01:37:06.386Z,101669.55
2023-02-06T01:39:39.282Z,101675.40
2023-02-06T01:42:14.228Z,101670.48
2023-02-06T01:44:46.744Z,101674.48
2023-02-06T01:47:19.951Z,101676.26
2023-02-06T01:49:52.571Z,101673.14
2023-02-06T01:52:27.063Z,101679.34
2023-02-06T01:55:02.378Z,101676.73
2023-02-06T01:57:36.752Z,101682.01
2023-02-06T02:00:10.767Z,101688.20
2023-02-06T02:02:49.545Z,101689.12
2023-02-06T02:05:22.011Z,101688.20
2023-02-06T02:08:15.346Z,101693.02
2023-02-06T02:11:00.888Z,101693.09
2023-02-06T02:13:34.449Z,101697.09
2023-02-06T02:16:33.064Z,101707.38
2023-02-06T02:19:24.775Z,101705.16
2023-02-06T02:22:27.432Z,101701.16
2023-02-06T02:25:22.742Z,101705.22
2023-02-06T02:28:27.020Z,101706.99
2023-02-06T02:31:37.631Z,101709.19
2023-02-06T02:34:35.531Z,101703.41
2023-02-06T02:37:47.418Z,101702.96
2023-02-06T02:40:50.532Z,101708.27
2023-02-06T02:43:40.843Z,101721.13
2023-02-06T02:46:27.141Z,101714.05
2023-02-06T02:49:07.084Z,101707.82
2023-02-06T02:51:40.588Z,101714.02
2023-02-06T02:54:12.969Z,101716.23
2023-02-06T02:56:45.583Z,101717.13
2023-02-06T02:59:40.569Z,101715.70
2023-02-06T03:02:29.011Z,101709.82
2023-02-06T03:05:07.387Z,101718.30
2023-02-06T03:08:13.965Z,101713.92
2023-02-06T03:11:16.197Z,101717.51
2023-02-06T03:13:53.875Z,101725.16
2023-02-06T03:16:33.030Z,101728.30
2023-02-06T03:19:16.083Z,101725.57
2023-02-06T03:21:48.800Z,101720.17
2023-02-06T03:24:25.626Z,101722.37
2023-02-06T03:27:04.363Z,101724.05
2023-02-06T03:29:37.111Z,101731.48
2023-02-06T03:32:19.721Z,101726.66
2023-02-06T03:35:08.813Z,101726.24
2023-02-06T03:37:41.430Z,101733.45
2023-02-06T03:40:14.953Z,101735.32
2023-02-06T03:42:52.620Z,101735.41
2023-02-06T03:45:31.937Z,101739.77
2023-02-06T03:48:07.898Z,101739.70
2023-02-06T03:50:43.018Z,101741.45
2023-02-06T03:53:15.633Z,101737.04
2023-02-06T03:55:48.410Z,101740.62
2023-02-06T03:58:23.779Z,101742.50
2023-02-06T04:00:55.417Z,101740.24
2023-02-06T04:03:27.906Z,101737.52
2023-02-06T04:06:00.731Z,101740.16
2023-02-06T04:08:34.740Z,101741.52
2023-02-06T04:11:07.346Z,101740.24
2023-02-06T04:13:41.190Z,101748.40
2023-02-06T04:16:13.849Z,101746.68
2023-02-06T04:18:46.968Z,101751.19
2023-02-06T04:21:20.145Z,101745.37
2023-02-06T04:23:52.682Z,101752.81
2023-02-06T04:26:25.950Z,101760.81
2023-02-06T04:29:12.353Z,101757.58
2023-02-06T04:31:45.396Z,101751.42
2023-02-06T04:34:18.366Z,101754.88
2023-02-06T04:36:50.866Z,101757.97
2023-02-06T04:39:23.439Z,101759.78
2023-02-06T04:41:56.648Z,101761.14
2023-02-06T04:44:31.226Z,101769.64
2023-02-06T04:47:04.275Z,101765.26
2023-02-06T04:49:37.084Z,101763.48
2023-02-06T04:52:09.589Z,101768.28
2023-02-06T04:54:42.622Z,101776.25
2023-02-06T04:57:15.266Z,101778.09
2023-02-06T04:59:48.415Z,101771.37
2023-02-06T05:02:20.928Z,101774.92
2023-02-06T05:04:53.289Z,101772.34
2023-02-06T05:07:26.047Z,101776.41
2023-02-06T05:09:58.461Z,101777.67
2023-02-06T05:12:30.911Z,101782.54
2023-02-06T05:15:03.553Z,101783.55
2023-02-06T05:17:37.730Z,101787.13
2023-02-06T05:20:10.794Z,101791.66
2023-02-06T05:22:43.799Z,101789.47
2023-02-06T05:25:16.265Z,101793.55
2023-02-06T05:27:49.299Z,101787.75
2023-02-06T05:30:22.554Z,101793.55
2023-02-06T05:32:55.640Z,101790.50
2023-02-06T05:35:28.445Z,101794.08
2023-02-06T05:38:01.535Z,101798.55
2023-02-06T05:40:34.783Z,101793.75
2023-02-06T05:43:07.697Z,101796.05
2023-02-06T05:45:40.762Z,101803.16
2023-02-06T05:48:14.589Z,101796.55
2023-02-06T05:50:51.890Z,101797.47
2023-02-06T05:53:24.898Z,101806.30
2023-02-06T05:56:19.067Z,101808.44
2023-02-06T05:58:51.951Z,101802.16
2023-02-06T06:01:26.098Z,101808.80
2023-02-06T06:03:58.958Z,101804.39
2023-02-06T06:06:31.682Z,101801.19
2023-02-06T06:09:04.568Z,101804.30
2023-02-06T06:11:37.607Z,101796.22
2023-02-06T06:14:11.712Z,101800.58
2023-02-06T06:16:44.352Z,101797.89
2023-02-06T06:19:16.974Z,101800.94
2023-02-06T06:21:49.776Z,101797.35
2023-02-06T06:24:22.871Z,101797.33
2023-02-06T06:26:59.100Z,101795.96
2023-02-06T06:29:33.067Z,101792.41
2023-02-06T06:32:07.017Z,101791.84
2023-02-06T06:34:40.268Z,101783.37
2023-02-06T06:37:12.953Z,101794.22
2023-02-06T06:39:45.728Z,101797.30
2023-02-06T06:42:18.321Z,101799.55
2023-02-06T06:44:51.053Z,101797.71
2023-02-06T06:47:23.469Z,101807.85
2023-02-06T06:49:57.953Z,101808.73
2023-02-06T06:52:30.532Z,101808.33
2023-02-06T06:55:03.457Z,101807.47
2023-02-06T06:57:36.452Z,101811.38
2023-02-06T07:00:10.913Z,101819.34
2023-02-06T07:02:59.613Z,101816.63
2023-02-06T07:05:32.016Z,101817.13
2023-02-06T07:08:05.698Z,101821.48
2023-02-06T07:10:38.971Z,101824.56
2023-02-06T07:13:11.403Z,101825.52
2023-02-06T07:15:44.940Z,101821.55
2023-02-06T07:18:17.622Z,101824.59
2023-02-06T07:20:51.579Z,101824.16
2023-02-06T07:23:25.036Z,101826.28
2023-02-06T07:28:42.446Z,101826.64
2023-02-06T07:31:14.938Z,101834.53
2023-02-06T07:33:47.490Z,101840.22
2023-02-06T07:36:20.055Z,101843.17
2023-02-06T07:38:52.818Z,101836.50
2023-02-06T07:41:25.748Z,101842.60
2023-02-06T07:43:58.449Z,101848.39
2023-02-06T07:46:31.176Z,101849.72
2023-02-06T07:49:03.751Z,101849.18
2023-02-06T07:51:36.957Z,101851.00
2023-02-06T07:54:09.604Z,101847.41
2023-02-06T07:56:42.166Z,101849.59
2023-02-06T07:59:15.075Z,101840.53
2023-02-06T08:01:47.702Z,101846.22
2023-02-06T08:04:20.688Z,101844.50
2023-02-06T08:06:53.465Z,101844.88
2023-02-06T08:09:25.992Z,101843.08
2023-02-06T08:11:58.470Z,101841.16
2023-02-06T08:14:31.668Z,101846.40
2023-02-06T08:17:04.653Z,101850.78
2023-02-06T08:19:37.935Z,101840.17
2023-02-06T08:22:10.391Z,101854.73
2023-02-06T08:24:43.012Z,101851.47
2023-02-06T08:27:15.511Z,101852.78
2023-02-06T08:29:48.209Z,101859.94
2023-02-06T08:32:20.940Z,101856.85
2023-02-06T08:34:53.825Z,101858.63
2023-02-06T08:37:26.393Z,101858.19
2023-02-06T08:39:59.274Z,101863.39
2023-02-06T08:42:31.911Z,101867.16
2023-02-06T08:45:04.542Z,101869.77
2023-02-06T08:47:37.715Z,101871.55
2023-02-06T08:50:10.519Z,101875.45
2023-02-06T08:52:43.113Z,101868.60
2023-02-06T08:55:15.828Z,101869.31
2023-02-06T08:57:48.419Z,101873.63
2023-02-06T09:00:21.939Z,101873.45
2023-02-06T09:02:56.240Z,101876.38
2023-02-06T09:05:28.906Z,101870.95
2023-02-06T09:08:01.928Z,101870.48
2023-02-06T09:10:35.123Z,101871.44
2023-02-06T09:13:07.802Z,101876.08
2023-02-06T09:15:41.819Z,101878.83
2023-02-06T09:18:14.434Z,101875.75
2023-02-06T09:20:48.601Z,101871.88
2023-02-06T09:23:21.274Z,101871.13
2023-02-06T09:25:53.724Z,101876.72
2023-02-06T09:28:26.387Z,101873.37
2023-02-06T09:30:58.962Z,101876.59
2023-02-06T09:33:31.564Z,101872.61
2023-02-06T09:36:17.103Z,101872.23
2023-02-06T09:39:11.445Z,101876.76
2023-02-06T09:41:47.715Z,101874.66
2023-02-06T09:44:33.427Z,101872.09
2023-02-06T09:47:17.145Z,101870.82
2023-02-06T09:50:08.744Z,101872.67
2023-02-06T09:53:12.183Z,101870.47
2023-02-06T09:55:51.525Z,101877.22
2023-02-06T10:01:49.206Z,101870.73
2023-02-06T10:04:57.220Z,101868.98
2023-02-06T10:07:49.381Z,101872.20
2023-02-06T10:10:38.497Z,101873.44
2023-02-06T10:13:21.813Z,101861.39
2023-02-06T10:15:59.357Z,101863.11
2023-02-06T10:18:48.919Z,101855.92
2023-02-06T10:21:39.091Z,101852.83
2023-02-06T10:24:47.484Z,101859.86
2023-02-06T10:27:20.010Z,101852.05
2023-02-06T10:29:52.500Z,101859.29
2023-02-06T10:32:43.033Z,101855.07
2023-02-06T10:35:26.255Z,101856.71
2023-02-06T10:38:24.258Z,101850.92
2023-02-06T10:41:02.006Z,101850.84
2023-02-06T10:43:43.649Z,101850.19
2023-02-06T10:46:24.209Z,101845.52
2023-02-06T10:49:19.553Z,101844.48
2023-02-06T10:52:04.427Z,101845.85
2023-02-06T10:54:38.746Z,101848.19
2023-02-06T10:57:25.264Z,101850.86
2023-02-06T11:00:03.594Z,101846.81
2023-02-06T11:02:44.329Z,101842.14
2023-02-06T11:05:24.640Z,101843.54
2023-02-06T11:08:04.429Z,101851.75
2023-02-06T11:10:37.571Z,101845.79
2023-02-06T11:13:29.286Z,101843.41
2023-02-06T11:16:08.509Z,101843.73
2023-02-06T11:18:45.017Z,101837.88
2023-02-06T11:21:19.645Z,101847.49
2023-02-06T11:23:55.328Z,101846.69
2023-02-06T11:26:27.647Z,101850.51
2023-02-06T11:29:17.274Z,101849.77
2023-02-06T11:32:08.350Z,101844.59
2023-02-06T11:35:18.875Z,101845.52
2023-02-06T11:37:55.649Z,101854.85
2023-02-06T11:40:29.426Z,101840.70
2023-02-06T11:43:24.460Z,101841.51
2023-02-06T11:46:32.643Z,101832.06
2023-02-06T11:49:09.705Z,101843.81
2023-02-06T11:52:03.811Z,101835.73
2023-02-06T11:54:36.929Z,101837.04
2023-02-06T11:57:22.141Z,101843.34
2023-02-06T11:59:58.138Z,101831.31
2023-02-06T12:02:39.324Z,101826.81
2023-02-06T12:05:17.463Z,101821.01
2023-02-06T12:08:10.017Z,101819.94
2023-02-06T12:10:46.880Z,101824.52
2023-02-06T12:13:27.358Z,101822.80
2023-02-06T12:16:02.291Z,101829.30
2023-02-06T12:18:44.051Z,101831.37
2023-02-06T12:21:27.193Z,101821.88
2023-02-06T12:24:04.860Z,101819.52
2023-02-06T12:26:38.725Z,101828.34
2023-02-06T12:29:23.206Z,101831.95
2023-02-06T12:32:19.480Z,101832.70
2023-02-06T12:35:03.495Z,101839.12
2023-02-06T12:37:47.028Z,101849.81
2023-02-06T12:40:39.354Z,101845.39
2023-02-06T12:43:16.903Z,101841.83
2023-02-06T12:46:09.248Z,101843.65
2023-02-06T12:48:55.276Z,101833.41
2023-02-06T12:51:45.165Z,101834.36
2023-02-06T12:54:22.741Z,101828.79
2023-02-06T12:57:17.267Z,101826.56
2023-02-06T13:00:04.055Z,101829.43
2023-02-06T13:02:59.600Z,101822.45
2023-02-06T13:05:37.645Z,101824.41
2023-02-06T13:08:27.195Z,101824.41
2023-02-06T13:11:06.023Z,101819.89
2023-02-06T13:16:23.674Z,101808.23
2023-02-06T13:18:56.257Z,101807.51
2023-02-06T13:21:32.548Z,101813.27
2023-02-06T13:24:26.445Z,101806.59
2023-02-06T13:27:05.320Z,101802.96
2023-02-06T13:29:51.726Z,101807.70
2023-02-06T13:32:39.330Z,101809.51
2023-02-06T13:35:26.100Z,101820.63
2023-02-06T13:38:28.567Z,101813.55
2023-02-06T13:41:18.065Z,101821.91
2023-02-06T13:44:00.818Z,101818.79
2023-02-06T13:47:26.585Z,101818.50
2023-02-06T13:50:15.691Z,101817.20
2023-02-06T13:53:17.556Z,101818.57
2023-02-06T13:56:12.575Z,101821.37
2023-02-06T13:58:53.680Z,101819.66
2023-02-06T14:01:31.052Z,101817.52
2023-02-06T14:04:06.054Z,101823.84
2023-02-06T14:06:42.062Z,101829.09
2023-02-06T14:09:13.156Z,101823.34
2023-02-06T14:12:02.140Z,101818.92
2023-02-06T14:14:38.485Z,101826.07
2023-02-06T14:17:09.469Z,101826.67
2023-02-06T14:20:17.035Z,101828.09
2023-02-06T14:22:57.115Z,101824.53
2023-02-06T14:26:15.681Z,101832.16
2023-02-06T14:29:20.468Z,101828.75
2023-02-06T14:32:19.605Z,101823.12
2023-02-06T14:35:30.543Z,101822.30
2023-02-06T14:38:24.380Z,101836.55
2023-02-06T14:40:58.139Z,101834.52
2023-02-06T14:43:33.829Z,101846.86
2023-02-06T14:46:11.559Z,101848.16
2023-02-06T14:48:54.616Z,101859.20
2023-02-06T14:51:34.668Z,101857.89
2023-02-06T14:54:31.965Z,101861.89
2023-02-06T14:57:08.735Z,101854.45
2023-02-06T14:59:54.733Z,101855.81
2023-02-06T15:02:36.248Z,101858.03
2023-02-06T15:05:08.894Z,101862.95
2023-02-06T15:07:41.570Z,101867.81
2023-02-06T15:10:21.318Z,101870.48
2023-02-06T15:12:55.433Z,101873.23
2023-02-06T15:15:31.431Z,101881.78
2023-02-06T15:18:09.626Z,101883.20
2023-02-06T15:20:44.398Z,101887.25
2023-02-06T15:23:55.445Z,101889.97
2023-02-06T15:26:59.608Z,101900.59
2023-02-06T15:29:32.220Z,101898.89
2023-02-06T15:32:08.953Z,101902.83
2023-02-06T15:34:41.715Z,101905.11
2023-02-06T15:37:30.817Z,101916.25
2023-02-06T15:40:23.094Z,101905.61
2023-02-06T15:42:55.696Z,101905.18
2023-02-06T15:45:39.242Z,101906.47
2023-02-06T15:48:27.405Z,101906.02
2023-02-06T15:51:32.618Z,101907.30
2023-02-06T15:54:23.954Z,101904.69
2023-02-06T15:57:21.985Z,101902.59
2023-02-06T15:59:56.839Z,101900.91
2023-02-06T16:02:34.300Z,101899.70
2023-02-06T16:05:07.671Z,101899.70
2023-02-06T16:07:41.411Z,101903.19
2023-02-06T16:10:29.208Z,101906.15
2023-02-06T16:13:03.462Z,101907.04
2023-02-06T16:15:40.223Z,101897.23
2023-02-06T16:18:31.874Z,101903.38
2023-02-06T16:21:27.610Z,101898.56
2023-02-06T16:24:08.032Z,101892.84
2023-02-06T16:26:52.501Z,101897.23
2023-02-06T16:29:31.514Z,101890.52
2023-02-06T16:32:14.466Z,101900.38
2023-02-06T16:34:47.689Z,101896.80
2023-02-06T16:37:26.875Z,101886.17
2023-02-06T16:39:59.368Z,101886.99
2023-02-06T16:42:57.277Z,101882.94
2023-02-06T16:45:30.226Z,101885.95
2023-02-06T16:48:03.257Z,101885.92
2023-02-06T16:50:37.277Z,101876.08
2023-02-06T16:53:20.713Z,101881.05
2023-02-06T16:55:53.276Z,101880.69
2023-02-06T16:58:27.586Z,101875.56
2023-02-06T17:01:00.638Z,101874.73
2023-02-06T17:03:33.357Z,101877.10
2023-02-06T17:06:07.540Z,101883.39
2023-02-06T17:08:40.607Z,101881.69
2023-02-06T17:11:13.840Z,101881.61
2023-02-06T17:13:46.562Z,101889.54
2023-02-06T17:16:24.078Z,101886.85
2023-02-06T17:18:56.634Z,101888.67
2023-02-06T17:21:30.908Z,101886.53
2023-02-06T17:24:03.292Z,101885.15
2023-02-06T17:26:35.910Z,101881.04
2023-02-06T17:29:08.679Z,101882.48
2023-02-06T17:31:41.747Z,101888.88
2023-02-06T17:34:14.262Z,101890.32
2023-02-06T17:36:46.899Z,101890.73
2023-02-06T17:39:20.217Z,101891.66
2023-02-06T17:41:52.898Z,101879.80
2023-02-06T17:44:25.641Z,101877.20
2023-02-06T17:46:58.334Z,101869.77
2023-02-06T17:49:31.582Z,101876.88
2023-02-06T17:52:04.640Z,101878.23
2023-02-06T17:54:38.166Z,101871.56
2023-02-06T17:57:11.159Z,101874.20
2023-02-06T17:59:44.584Z,101872.41
2023-02-06T18:02:17.832Z,101871.55
2023-02-06T18:04:54.327Z,101871.21
2023-02-06T18:07:27.801Z,101879.31
2023-02-06T18:10:01.317Z,101883.80
2023-02-06T18:12:34.695Z,101885.14
2023-02-06T18:15:08.571Z,101878.14
2023-02-06T18:17:43.426Z,101888.84
2023-02-06T18:20:17.652Z,101896.02
2023-02-06T18:22:50.846Z,101894.31
2023-02-06T18:25:24.032Z,101895.23
2023-02-06T18:27:56.941Z,101893.94
2023-02-06T18:30:29.725Z,101896.25
2023-02-06T18:33:02.751Z,101902.10
2023-02-06T18:35:41.796Z,101898.62
2023-02-06T18:38:15.331Z,101902.62
2023-02-06T18:40:48.432Z,101902.20
2023-02-06T18:43:21.033Z,101903.97
2023-02-06T18:45:54.070Z,101907.53
2023-02-06T18:48:26.733Z,101907.03
2023-02-06T18:51:01.041Z,101910.14
2023-02-06T18:53:33.662Z,101917.23
2023-02-06T18:56:06.180Z,101916.38
2023-02-06T18:58:39.034Z,101917.21
2023-02-06T19:01:21.892Z,101908.37
2023-02-06T19:04:04.866Z,101917.17
2023-02-06T19:06:39.653Z,101921.61
2023-02-06T19:09:13.524Z,101921.19
2023-02-06T19:11:48.314Z,101926.09
2023-02-06T19:14:23.053Z,101922.94
2023-02-06T19:16:58.573Z,101914.95
2023-02-06T19:19:31.046Z,101912.39
2023-02-06T19:22:03.780Z,101909.85
2023-02-06T19:24:37.069Z,101915.69
2023-02-06T19:27:12.163Z,101914.48
2023-02-06T19:29:45.078Z,101911.92
2023-02-06T19:32:17.550Z,101911.95
2023-02-06T19:34:50.429Z,101915.06
2023-02-06T19:37:23.574Z,101906.28
2023-02-06T19:39:56.339Z,101904.09
2023-02-06T19:42:29.420Z,101907.69
2023-02-06T19:45:01.816Z,101899.27
2023-02-06T19:47:36.794Z,101893.97
2023-02-06T19:50:12.072Z,101892.23
2023-02-06T19:52:45.062Z,101891.77
2023-02-06T19:55:17.799Z,101882.06
2023-02-06T19:57:50.212Z,101883.33
2023-02-06T20:00:22.711Z,101889.09
2023-02-06T20:02:56.486Z,101889.07
2023-02-06T20:05:29.295Z,101884.13
2023-02-06T20:08:03.870Z,101880.50
2023-02-06T20:10:39.611Z,101885.77
2023-02-06T20:13:13.754Z,101893.25
2023-02-06T20:15:46.288Z,101886.58
2023-02-06T20:18:18.775Z,101882.59
2023-02-06T20:20:51.398Z,101877.70
2023-02-06T20:23:24.185Z,101881.67
2023-02-06T20:25:56.774Z,101876.36
2023-02-06T20:28:29.330Z,101871.91
2023-02-06T20:31:03.784Z,101875.88
2023-02-06T20:33:38.297Z,101876.78
2023-02-06T20:36:17.464Z,101879.42
2023-02-06T20:38:58.060Z,101880.28
2023-02-06T20:41:34.528Z,101870.55
2023-02-06T20:44:07.703Z,101867.92
2023-02-06T20:46:40.406Z,101869.25
2023-02-06T20:49:19.298Z,101870.95
2023-02-06T20:51:52.162Z,101859.35
2023-02-06T20:54:25.215Z,101864.18
2023-02-06T20:56:57.834Z,101865.50
2023-02-06T20:59:30.669Z,101872.58
2023-02-06T21:02:03.469Z,101873.95
2023-02-06T21:04:36.613Z,101872.66
2023-02-06T21:07:08.954Z,101874.89
2023-02-06T21:09:41.938Z,101867.72
2023-02-06T21:12:14.657Z,101862.41
2023-02-06T21:14:47.140Z,101865.55
2023-02-06T21:17:20.218Z,101867.33
2023-02-06T21:19:54.302Z,101864.28
2023-02-06T21:22:27.380Z,101861.64
2023-02-06T21:25:00.001Z,101866.95
2023-02-06T21:27:33.157Z,101861.13
2023-02-06T21:30:06.761Z,101860.73
2023-02-06T21:32:39.865Z,101865.20
2023-02-06T21:35:12.946Z,101873.20
2023-02-06T21:37:45.593Z,101865.30
2023-02-06T21:40:18.308Z,101863.58
2023-02-06T21:42:50.835Z,101858.26
2023-02-06T21:45:23.375Z,101859.05
2023-02-06T21:47:56.209Z,101854.58
2023-02-06T21:50:28.711Z,101849.63
2023-02-06T21:53:01.611Z,101849.09
2023-02-06T21:55:35.372Z,101847.29
2023-02-06T21:58:08.816Z,101838.40
2023-02-06T22:00:46.763Z,101831.30
2023-02-06T22:03:19.697Z,101828.66
2023-02-06T22:05:52.557Z,101831.82
2023-02-06T22:08:25.181Z,101824.77
2023-02-06T22:10:58.437Z,101823.03
2023-02-06T22:13:31.510Z,101820.45
2023-02-06T22:16:04.468Z,101824.45
2023-02-06T22:18:37.373Z,101824.42
2023-02-06T22:21:16.657Z,101832.33
2023-02-06T22:23:50.372Z,101825.20
2023-02-06T22:26:23.172Z,101825.72
2023-02-06T22:28:56.272Z,101819.03
2023-02-06T22:31:32.618Z,101820.34
2023-02-06T22:34:05.639Z,101815.50
2023-02-06T22:36:38.616Z,101820.84
2023-02-06T22:39:12.940Z,101817.79
2023-02-06T22:41:45.697Z,101816.91
